Time;durP1;ratioP1;P1;durP2;ratioP2;P2;SDS_P1;SDS_P2;PMS_P1;PMS_P2;Temp;Humidity;BMP_temperature;BMP_pressure;BME280_temperature;BME280_humidity;BME280_pressure;Samples;Min_cycle;Max_cycle;Signal;HPM_P1;HPM_P2
2022/07/03 00:00:21;;;;;;;11.07;2.10;;;;;;;28.70;32.34;96802.22;5051616;28;20036;-30
2022/07/03 00:02:47;;;;;;;5.18;2.00;;;;;;;28.70;32.34;96802.22;5057028;28;21022;-32
2022/07/03 00:05:12;;;;;;;5.35;1.98;;;;;;;28.70;32.34;96802.22;5057944;28;20043;-31
2022/07/03 00:07:38;;;;;;;3.65;2.00;;;;;;;28.70;32.34;96802.22;5057921;28;20031;-32
2022/07/03 00:10:03;;;;;;;4.35;1.90;;;;;;;;;;5060276;28;20109;-32
2022/07/03 00:12:29;;;;;;;4.35;2.03;;;;;;;;;;5062261;28;20166;-32
2022/07/03 00:14:54;;;;;;;3.03;1.92;;;;;;;-148.56;100.00;61375.16;5061771;28;20043;-31
2022/07/03 00:17:19;;;;;;;5.93;1.75;;;;;;;-148.56;32.34;70751.06;5052049;28;20040;-35
2022/07/03 00:19:45;;;;;;;3.35;1.70;;;;;;;-148.56;100.00;61375.16;5048060;28;20036;-36
2022/07/03 00:22:11;;;;;;;3.90;1.80;;;;;;;-148.56;100.00;61375.16;5055859;28;20129;-32
2022/07/03 00:24:53;;;;;;;3.63;1.83;;;;;;;-148.56;100.00;61375.16;5056608;28;20111;-31
2022/07/03 00:27:21;;;;;;;4.63;1.83;;;;;;;-148.56;100.00;61375.16;5048192;28;20028;-36
2022/07/03 00:29:46;;;;;;;4.45;1.88;;;;;;;;;;5051747;28;20886;-30
2022/07/03 00:32:19;;;;;;;4.35;2.00;;;;;;;-148.56;28.95;61375.16;5048107;28;20023;-37
2022/07/03 00:34:44;;;;;;;5.72;2.25;;;;;;;-148.56;100.00;61375.16;5049351;28;20553;-32
2022/07/03 00:37:10;;;;;;;3.22;1.88;;;;;;;-148.56;100.00;61375.16;5038927;28;20028;-33
2022/07/03 00:39:37;;;;;;;3.08;1.88;;;;;;;-148.56;100.00;61375.16;5064491;28;20024;-29
2022/07/03 00:42:03;;;;;;;3.60;1.85;;;;;;;-148.56;100.00;61375.16;5064076;28;20107;-30
2022/07/03 00:44:29;;;;;;;4.57;1.75;;;;;;;-148.56;28.95;61375.16;5051630;28;21861;-30
2022/07/03 00:46:55;;;;;;;4.38;1.70;;;;;;;-148.56;28.95;153829.50;5058452;28;20051;-32
2022/07/03 00:49:20;;;;;;;2.55;1.80;;;;;;;-148.56;32.34;95876.56;5060168;28;20027;-28
2022/07/03 00:51:45;;;;;;;3.58;1.88;;;;;;;-148.56;32.34;70751.06;5033095;28;20032;-31
2022/07/03 00:54:11;;;;;;;2.92;1.77;;;;;;;;;;5038026;28;20879;-33
2022/07/03 00:56:38;;;;;;;2.85;1.80;;;;;;;28.70;32.34;96802.22;5067693;28;20074;-33
2022/07/03 00:59:03;;;;;;;3.03;1.88;;;;;;;-148.56;100.00;61375.16;5061139;28;20031;-37
2022/07/03 01:01:30;;;;;;;3.13;1.92;;;;;;;-148.56;28.95;61375.16;5055820;28;20431;-34
2022/07/03 01:04:08;;;;;;;2.33;1.70;;;;;;;-148.56;100.00;61375.16;5060658;28;20027;-29
2022/07/03 01:06:35;;;;;;;8.32;2.30;;;;;;;-148.56;100.00;61375.16;5056253;28;20036;-31
2022/07/03 01:09:02;;;;;;;5.85;2.00;;;;;;;28.70;32.34;96802.22;5062183;28;20721;-31
2022/07/03 01:11:41;;;;;;;3.45;1.80;;;;;;;-148.56;45.80;61375.16;5065144;28;20146;-30
2022/07/03 01:14:25;;;;;;;2.85;1.73;;;;;;;-148.56;28.95;113866.56;5056883;28;20518;-35
2022/07/03 01:17:06;;;;;;;4.43;1.90;;;;;;;-148.56;100.00;113867.59;5058391;28;20042;-31
2022/07/03 01:19:38;;;;;;;2.97;1.80;;;;;;;-148.56;100.00;61375.16;5052926;28;20899;-34
2022/07/03 01:22:18;;;;;;;;;;;;;;;-148.56;32.62;61375.16;5061311;28;20047;-30
2022/07/03 01:24:57;;;;;;;4.05;1.90;;;;;;;;;;5062030;28;19967;-34
2022/07/03 01:27:29;;;;;;;4.20;1.60;;;;;;;28.70;32.34;91478.41;5053145;28;20034;-32
2022/07/03 01:30:00;;;;;;;6.25;2.10;;;;;;;-148.56;100.00;61375.16;5057010;28;21001;-33
2022/07/03 01:32:28;;;;;;;3.25;1.80;;;;;;;-148.56;50.26;70751.06;5056775;28;20043;-32
2022/07/03 01:34:53;;;;;;;2.38;1.83;;;;;;;-4.46;32.34;96802.22;5057216;28;20777;-35
2022/07/03 01:37:21;;;;;;;2.05;1.60;;;;;;;-148.56;100.00;61375.16;5049591;28;20048;-34
2022/07/03 01:39:46;;;;;;;3.15;1.75;;;;;;;;;;5069122;28;20085;-34
2022/07/03 01:42:11;;;;;;;2.08;1.40;;;;;;;-148.56;100.00;61375.16;5056298;28;20028;-32
2022/07/03 01:44:38;;;;;;;4.40;1.80;;;;;;;-148.56;32.34;70751.38;5048692;28;20039;-34
2022/07/03 01:47:03;;;;;;;2.13;1.58;;;;;;;-148.56;32.34;96802.22;5045209;28;20051;-34
2022/07/03 01:49:28;;;;;;;2.58;1.90;;;;;;;-148.56;100.00;61375.16;5062046;28;22008;-30
2022/07/03 01:51:54;;;;;;;2.75;1.60;;;;;;;-148.56;32.34;96802.22;5039339;28;20833;-32
2022/07/03 01:54:19;;;;;;;1.90;1.52;;;;;;;;;;5056744;28;20165;-30
2022/07/03 01:56:45;;;;;;;4.63;1.80;;;;;;;-148.56;28.95;153490.47;5054809;28;20161;-34
2022/07/03 01:59:10;;;;;;;3.22;1.60;;;;;;;-148.56;100.00;61375.16;5049968;28;20031;-28
2022/07/03 02:01:45;;;;;;;2.05;1.60;;;;;;;-148.56;100.00;61375.16;5039262;28;20114;-36
2022/07/03 02:04:29;;;;;;;4.80;1.70;;;;;;;;;;5068365;27;20146;-30
2022/07/03 02:07:12;;;;;;;2.03;1.48;;;;;;;-148.56;0.00;61375.16;5060524;28;20032;-31
2022/07/03 02:09:44;;;;;;;3.10;1.73;;;;;;;-148.56;28.95;68883.69;5061215;28;20036;-32
2022/07/03 02:12:12;;;;;;;2.83;2.00;;;;;;;-148.56;100.00;61375.16;5061402;28;20059;-32
2022/07/03 02:14:37;;;;;;;2.00;1.80;;;;;;;-148.56;100.00;61375.16;5061800;28;20020;-30
2022/07/03 02:17:16;;;;;;;1.95;1.48;;;;;;;-148.56;32.34;70751.06;5041136;28;20043;-35
2022/07/03 02:19:54;;;;;;;7.20;1.50;;;;;;;-148.56;32.34;70751.06;5051468;28;20036;-34
2022/07/03 02:22:21;;;;;;;2.42;1.48;;;;;;;-148.56;100.00;61375.16;5052549;28;20028;-32
2022/07/03 02:24:47;;;;;;;5.10;1.50;;;;;;;-148.56;100.00;61375.16;5059514;28;20031;-31
2022/07/03 02:27:19;;;;;;;3.38;1.85;;;;;;;-148.56;100.00;61375.16;5056868;28;20420;-31
2022/07/03 02:29:59;;;;;;;2.42;1.40;;;;;;;-148.56;32.34;61375.16;5052504;28;20032;-32
2022/07/03 02:32:25;;;;;;;6.78;1.42;;;;;;;-148.56;100.00;61375.16;5042543;28;20075;-31
2022/07/03 02:35:00;;;;;;;2.30;1.65;;;;;;;-148.56;100.00;61375.16;5039322;28;20670;-31
2022/07/03 02:37:29;;;;;;;6.13;1.67;;;;;;;-148.56;100.00;61375.16;5049971;28;21064;-34
2022/07/03 02:40:08;;;;;;;1.50;1.27;;;;;;;-148.56;100.00;61375.16;5059693;28;20042;-31
2022/07/03 02:42:44;;;;;;;1.45;1.13;;;;;;;-148.56;100.00;61375.16;5052883;28;21132;-31
2022/07/03 02:45:10;;;;;;;3.10;1.70;;;;;;;-148.56;100.00;61375.16;5053275;28;20028;-30
2022/07/03 02:47:54;;;;;;;3.35;1.70;;;;;;;-148.56;28.95;81748.81;5055157;28;20628;-31
2022/07/03 02:50:22;;;;;;;2.13;1.67;;;;;;;28.70;32.34;96802.22;5055110;28;20450;-30
2022/07/03 02:53:08;;;;;;;3.55;1.45;;;;;;;-148.56;nan;61375.16;5059528;28;20034;-31
2022/07/03 02:55:43;;;;;;;3.50;1.80;;;;;;;-148.56;28.95;113866.56;5063205;28;20028;-31
2022/07/03 02:58:12;;;;;;;2.13;1.70;;;;;;;-148.56;32.34;95661.84;5073479;28;20039;-31
2022/07/03 03:00:37;;;;;;;2.80;1.55;;;;;;;-148.56;100.00;61375.16;5064690;28;20032;-33
2022/07/03 03:03:03;;;;;;;3.40;1.73;;;;;;;-148.56;100.00;61375.16;5081172;27;20958;-34
2022/07/03 03:05:49;;;;;;;5.55;1.75;;;;;;;-148.56;32.34;96802.22;5048696;28;20024;-33
2022/07/03 03:08:21;;;;;;;3.67;1.42;;;;;;;28.70;32.34;96802.22;5072330;28;20089;-31
2022/07/03 03:10:48;;;;;;;3.28;1.48;;;;;;;28.70;32.34;96802.22;5065835;28;20407;-30
2022/07/03 03:13:16;;;;;;;4.75;1.50;;;;;;;28.70;32.34;96802.22;5068155;28;20040;-31
2022/07/03 03:16:10;;;;;;;3.33;1.45;;;;;;;28.70;32.34;96802.22;5064802;28;20027;-34
2022/07/03 03:18:37;;;;;;;6.20;1.50;;;;;;;28.70;32.34;96802.22;5058171;28;20080;-31
2022/07/03 03:21:03;;;;;;;5.32;1.50;;;;;;;28.70;32.34;96802.22;5067665;28;20028;-30
2022/07/03 03:23:43;;;;;;;2.17;1.38;;;;;;;28.70;32.34;96802.22;5069551;28;20472;-30
2022/07/03 03:26:10;;;;;;;4.00;1.95;;;;;;;28.70;32.34;96802.22;5066191;28;20125;-30
2022/07/03 03:28:36;;;;;;;5.00;1.30;;;;;;;-148.56;32.34;96802.22;5050928;28;20032;-35
2022/07/03 03:31:01;;;;;;;2.42;1.33;;;;;;;28.14;32.98;96861.91;5053199;28;20039;-31
2022/07/03 03:33:26;;;;;;;2.03;1.40;;;;;;;28.14;32.81;96854.00;5048236;28;20024;-30
2022/07/03 03:35:52;;;;;;;2.80;1.48;;;;;;;28.14;32.81;96854.00;5051293;28;20129;-30
2022/07/03 03:38:17;;;;;;;3.53;1.55;;;;;;;28.14;32.81;96854.00;5048073;28;20070;-30
2022/07/03 03:40:43;;;;;;;1.80;1.20;;;;;;;28.14;32.81;96854.00;5048920;28;21047;-33
2022/07/03 03:43:09;;;;;;;4.03;1.42;;;;;;;28.12;32.67;96860.31;5050976;28;20093;-29
2022/07/03 03:45:34;;;;;;;3.97;1.40;;;;;;;28.12;32.67;96860.31;5050576;28;20024;-32
2022/07/03 03:48:00;;;;;;;2.58;1.30;;;;;;;28.12;32.67;96860.31;5051135;28;20020;-31
2022/07/03 03:50:25;;;;;;;4.20;1.45;;;;;;;28.12;32.67;96860.31;5051063;28;20051;-32
2022/07/03 03:52:50;;;;;;;1.88;1.30;;;;;;;28.12;32.67;96860.31;5045065;28;20457;-34
2022/07/03 03:55:16;;;;;;;2.33;1.30;;;;;;;28.12;32.67;96860.31;5051313;28;20028;-30
2022/07/03 03:57:41;;;;;;;3.33;1.33;;;;;;;28.10;32.89;96878.84;5050450;28;20105;-32
2022/07/03 04:00:07;;;;;;;3.35;1.27;;;;;;;28.10;32.89;96878.84;5051865;28;20101;-34
2022/07/03 04:02:33;;;;;;;2.30;1.50;;;;;;;-148.56;32.89;96878.84;5055538;28;20415;-30
2022/07/03 04:04:58;;;;;;;2.22;1.15;;;;;;;28.10;32.89;96878.84;5050520;28;20106;-33
2022/07/03 04:07:24;;;;;;;2.58;1.38;;;;;;;28.10;32.89;96878.84;5058419;28;20028;-31
2022/07/03 04:09:49;;;;;;;1.50;1.30;;;;;;;28.10;32.89;96878.84;5060685;28;20540;-30
2022/07/03 04:12:14;;;;;;;4.45;1.50;;;;;;;28.09;33.12;96871.03;5059521;28;20040;-33
2022/07/03 04:14:40;;;;;;;2.58;1.40;;;;;;;28.09;33.12;96871.03;5048161;28;20035;-30
2022/07/03 04:17:05;;;;;;;1.95;1.50;;;;;;;28.09;33.12;96871.03;5055257;28;20020;-30
2022/07/03 04:19:30;;;;;;;4.15;1.48;;;;;;;28.09;33.12;96871.03;5049986;28;20415;-34
2022/07/03 04:21:56;;;;;;;4.45;1.67;;;;;;;28.09;33.12;96871.03;5054666;28;20044;-31
2022/07/03 04:24:22;;;;;;;2.22;1.30;;;;;;;-148.56;nan;61375.16;5055928;28;20036;-29
2022/07/03 04:26:47;;;;;;;2.50;1.30;;;;;;;28.08;33.17;96883.38;5055337;28;20758;-29
2022/07/03 04:29:12;;;;;;;1.30;1.20;;;;;;;-148.56;33.17;96883.38;5046853;28;20534;-34
2022/07/03 04:31:38;;;;;;;4.28;1.60;;;;;;;28.08;33.17;96883.38;5054549;28;20658;-30
2022/07/03 04:34:03;;;;;;;2.42;1.48;;;;;;;28.08;33.17;96883.38;5050033;28;20028;-30
2022/07/03 04:36:29;;;;;;;3.45;1.45;;;;;;;28.08;33.17;96883.38;5051527;28;22180;-31
2022/07/03 04:38:54;;;;;;;5.40;1.52;;;;;;;28.08;33.17;96883.38;5051432;28;20032;-31
2022/07/03 04:41:19;;;;;;;2.17;1.17;;;;;;;28.08;33.17;96883.38;5047220;28;20032;-36
2022/07/03 04:43:45;;;;;;;2.10;1.40;;;;;;;28.08;33.17;96883.38;5054541;28;20035;-30
2022/07/03 04:46:10;;;;;;;4.35;1.60;;;;;;;;;;5052811;28;20058;-30
2022/07/03 04:48:35;;;;;;;2.42;1.33;;;;;;;-148.56;100.00;61375.16;5056161;28;20066;-31
2022/07/03 04:51:01;;;;;;;2.10;1.40;;;;;;;28.08;33.17;96883.38;5060543;28;20034;-33
2022/07/03 04:53:26;;;;;;;3.35;1.10;;;;;;;-148.56;33.17;70885.41;5051247;28;20043;-30
2022/07/03 04:55:52;;;;;;;3.63;1.50;;;;;;;-148.56;100.00;61375.16;5056644;28;20039;-30
2022/07/03 04:58:18;;;;;;;7.18;1.58;;;;;;;-148.56;100.00;61375.16;5058348;28;21029;-32
2022/07/03 05:00:43;;;;;;;3.88;1.48;;;;;;;;;;5055787;28;20088;-30
2022/07/03 05:03:09;;;;;;;4.45;1.38;;;;;;;-148.56;100.00;61375.16;5056567;28;20023;-29
2022/07/03 05:05:34;;;;;;;4.90;1.50;;;;;;;;;;5052832;28;20115;-37
2022/07/03 05:08:00;;;;;;;4.60;1.25;;;;;;;-148.56;33.17;70885.75;5060468;28;20366;-30
2022/07/03 05:10:25;;;;;;;2.75;1.40;;;;;;;;;;5065279;28;20530;-31
2022/07/03 05:12:50;;;;;;;1.50;1.27;;;;;;;28.08;33.17;96883.38;5061990;28;20379;-32
2022/07/03 05:15:16;;;;;;;1.70;1.20;;;;;;;28.08;33.17;96883.38;5060279;28;22775;-31
2022/07/03 05:17:41;;;;;;;3.60;1.33;;;;;;;-148.56;100.00;61375.16;5054147;28;20047;-32
2022/07/03 05:22:52;;;;;;;4.75;1.50;;;;;;;28.08;33.17;96883.38;5062153;28;20085;-32
2022/07/03 05:25:17;;;;;;;2.58;1.13;;;;;;;28.08;33.17;96883.38;5054850;28;20839;-32
2022/07/03 05:27:43;;;;;;;2.15;1.38;;;;;;;28.08;33.17;96883.38;5050171;28;22785;-33
2022/07/03 05:30:08;;;;;;;4.30;1.30;;;;;;;28.08;33.17;96883.38;5051821;28;20737;-33
2022/07/03 05:32:34;;;;;;;2.13;1.08;;;;;;;28.08;33.17;96883.38;5051455;28;20031;-35
2022/07/03 05:35:00;;;;;;;2.22;1.25;;;;;;;-148.56;29.44;113614.75;5055630;28;21312;-31
2022/07/03 05:37:26;;;;;;;2.95;1.10;;;;;;;-148.56;29.44;61375.16;5052233;28;20042;-34
2022/07/03 05:39:51;;;;;;;3.30;1.40;;;;;;;28.26;33.85;96912.19;5057742;28;20036;-30
2022/07/03 05:42:16;;;;;;;4.20;1.20;;;;;;;28.26;33.85;96912.19;5053740;28;20801;-35
2022/07/03 05:44:42;;;;;;;3.83;1.52;;;;;;;28.26;33.85;96912.19;5047481;28;20027;-36
2022/07/03 05:47:07;;;;;;;2.80;1.10;;;;;;;28.26;33.85;96912.19;5052769;28;20043;-34
2022/07/03 05:49:33;;;;;;;2.72;1.30;;;;;;;-148.56;29.90;109934.63;5053702;28;20031;-35
2022/07/03 05:51:58;;;;;;;2.63;1.27;;;;;;;-148.56;33.85;96912.19;5055408;28;20569;-34
2022/07/03 05:54:23;;;;;;;4.15;1.17;;;;;;;-148.56;33.85;70885.41;5054204;28;22469;-31
2022/07/03 05:56:49;;;;;;;3.35;1.17;;;;;;;-148.56;33.85;96912.19;5057500;28;20043;-30
2022/07/03 05:59:14;;;;;;;2.72;1.70;;;;;;;28.26;33.85;96912.19;5057266;28;20152;-33
2022/07/03 06:01:40;;;;;;;3.80;1.20;;;;;;;-148.56;33.85;70885.75;5062288;28;20406;-32
2022/07/03 06:04:05;;;;;;;1.30;1.15;;;;;;;28.26;33.85;96912.19;5049565;28;20039;-30
2022/07/03 06:06:30;;;;;;;1.95;1.20;;;;;;;28.26;33.85;96912.19;5058451;28;20652;-30
2022/07/03 06:08:56;;;;;;;2.90;1.10;;;;;;;-148.56;33.85;70885.75;5064164;28;22432;-31
2022/07/03 06:11:21;;;;;;;3.40;1.38;;;;;;;28.26;33.85;96912.19;5064174;28;20031;-33
2022/07/03 06:13:47;;;;;;;2.97;1.42;;;;;;;28.26;33.85;96912.19;5067799;28;20187;-37
2022/07/03 06:16:12;;;;;;;1.10;1.00;;;;;;;28.26;33.85;96912.19;5061316;28;20113;-31
2022/07/03 06:18:38;;;;;;;1.55;1.30;;;;;;;28.26;33.85;96912.19;5055476;28;20031;-30
2022/07/03 06:21:03;;;;;;;4.38;1.42;;;;;;;-148.56;33.85;61375.16;5062716;28;20039;-31
2022/07/03 06:23:28;;;;;;;2.33;1.30;;;;;;;-148.56;33.91;61375.16;5056003;28;20020;-37
2022/07/03 06:25:54;;;;;;;5.00;1.10;;;;;;;28.26;33.85;96912.19;5053610;28;20828;-39
2022/07/03 06:28:19;;;;;;;1.80;1.40;;;;;;;28.26;33.85;96912.19;5060231;28;20024;-32
2022/07/03 06:30:45;;;;;;;1.55;1.10;;;;;;;28.26;33.85;96912.19;5047631;28;20600;-35
2022/07/03 06:33:10;;;;;;;2.17;1.10;;;;;;;-148.56;33.85;70885.75;5052914;28;20545;-34
2022/07/03 06:35:35;;;;;;;1.65;1.00;;;;;;;-148.56;33.85;70885.41;5055853;28;20035;-32
2022/07/03 06:38:04;;;;;;;3.58;1.10;;;;;;;28.26;33.85;96912.19;5057547;28;20034;-31
2022/07/03 06:40:29;;;;;;;3.10;1.10;;;;;;;-148.56;100.00;113866.56;5049857;28;20058;-34
2022/07/03 06:42:55;;;;;;;3.33;1.20;;;;;;;-148.56;33.85;96912.19;5053332;28;20032;-35
2022/07/03 06:45:20;;;;;;;1.85;1.02;;;;;;;-148.56;nan;61375.16;5054137;28;20972;-34
2022/07/03 06:47:46;;;;;;;2.95;1.30;;;;;;;-148.56;100.00;61375.16;5048373;28;20213;-31
2022/07/03 06:50:12;;;;;;;3.25;1.20;;;;;;;-148.56;33.85;96912.19;5050911;28;20032;-31
2022/07/03 06:52:37;;;;;;;2.88;1.33;;;;;;;-148.56;100.00;61375.16;5052335;28;20028;-32
2022/07/03 06:55:03;;;;;;;4.32;1.50;;;;;;;-148.56;100.00;61375.16;5052300;28;20043;-31
2022/07/03 06:57:28;;;;;;;2.42;1.25;;;;;;;-148.56;100.00;61375.16;5063214;28;20549;-33
2022/07/03 06:59:54;;;;;;;3.67;1.40;;;;;;;-148.56;100.00;61375.16;5062350;28;20028;-30
2022/07/03 07:02:19;;;;;;;3.60;1.45;;;;;;;-148.56;100.00;61375.16;5065927;28;20036;-37
2022/07/03 07:04:44;;;;;;;4.40;1.35;;;;;;;-148.56;100.00;61375.16;5060112;28;20023;-36
2022/07/03 07:07:10;;;;;;;2.53;1.35;;;;;;;-148.56;100.00;61375.16;5058962;28;20028;-32
2022/07/03 07:09:35;;;;;;;3.17;1.20;;;;;;;-148.56;100.00;61375.16;5055366;28;20043;-33
2022/07/03 07:12:01;;;;;;;4.88;1.52;;;;;;;-148.56;0.00;61375.16;5066669;28;20118;-30
2022/07/03 07:14:26;;;;;;;4.25;1.65;;;;;;;-148.56;33.85;70885.75;5071715;28;20035;-31
2022/07/03 07:16:52;;;;;;;8.38;1.40;;;;;;;-148.56;100.00;61375.16;5066273;28;20031;-30
2022/07/03 07:19:17;;;;;;;10.38;2.33;;;;;;;-148.56;0.00;113866.56;5067936;28;20739;-32
2022/07/03 07:21:42;;;;;;;3.88;1.20;;;;;;;-148.56;100.00;61375.16;5069639;28;20409;-30
2022/07/03 07:24:08;;;;;;;3.53;1.17;;;;;;;-148.56;29.86;61375.16;5070177;28;20052;-32
2022/07/03 07:26:33;;;;;;;4.00;1.30;;;;;;;-148.56;100.00;61375.16;5067252;28;20497;-31
2022/07/03 07:28:59;;;;;;;4.43;1.08;;;;;;;-148.56;nan;61375.16;5072461;28;20477;-31
2022/07/03 07:31:24;;;;;;;4.35;1.17;;;;;;;-148.56;100.00;61375.16;5072946;28;20653;-31
2022/07/03 07:33:49;;;;;;;4.97;1.40;;;;;;;-148.56;100.00;61375.16;5071395;28;20038;-30
2022/07/03 07:36:15;;;;;;;2.67;1.40;;;;;;;-148.56;100.00;61375.16;5068091;28;20096;-30
2022/07/03 07:38:40;;;;;;;4.38;1.42;;;;;;;-148.56;100.00;61375.16;5071278;28;20036;-32
2022/07/03 07:41:05;;;;;;;3.47;1.35;;;;;;;-148.56;100.00;61375.16;5063890;28;20732;-36
2022/07/03 07:43:31;;;;;;;2.08;1.30;;;;;;;-148.56;32.46;61375.16;5063460;28;20031;-31
2022/07/03 07:45:56;;;;;;;1.73;1.35;;;;;;;-148.56;100.00;61375.16;5059456;28;20020;-31
2022/07/03 07:48:22;;;;;;;2.72;1.30;;;;;;;-148.56;100.00;61375.16;5063056;28;20771;-35
2022/07/03 07:50:49;;;;;;;4.88;1.27;;;;;;;-148.56;100.00;61375.16;5062977;28;20891;-34
2022/07/03 07:53:15;;;;;;;7.80;1.30;;;;;;;-148.56;nan;61375.16;5061412;28;20027;-31
2022/07/03 07:55:40;;;;;;;3.42;1.40;;;;;;;-148.56;100.00;61375.16;5059765;28;20036;-34
2022/07/03 07:58:05;;;;;;;2.47;1.48;;;;;;;-148.56;100.00;61375.16;5060301;28;20152;-34
2022/07/03 08:00:31;;;;;;;6.82;1.23;;;;;;;-148.56;100.00;61375.16;5064480;28;20039;-30
2022/07/03 08:05:40;;;;;;;4.55;1.30;;;;;;;-148.56;100.00;61375.16;5060711;28;20133;-31
2022/07/03 08:08:07;;;;;;;8.88;1.67;;;;;;;-148.56;100.00;61375.16;5064652;28;22148;-37
2022/07/03 08:10:39;;;;;;;2.53;1.20;;;;;;;-148.56;100.00;61375.16;5063576;28;20024;-31
2022/07/03 08:13:04;;;;;;;5.15;1.20;;;;;;;-148.56;100.00;61375.16;5067845;28;20100;-34
2022/07/03 08:15:30;;;;;;;4.18;1.40;;;;;;;-148.56;100.00;61375.16;5058782;28;21070;-37
2022/07/03 08:17:55;;;;;;;2.80;1.10;;;;;;;-148.56;100.00;61375.16;5061642;28;20035;-33
2022/07/03 08:20:20;;;;;;;1.83;1.13;;;;;;;-148.56;100.00;61375.16;5072718;28;20057;-33
2022/07/03 08:22:46;;;;;;;4.82;1.00;;;;;;;-148.56;100.00;61375.16;5063843;28;20563;-31
2022/07/03 08:25:11;;;;;;;2.70;1.05;;;;;;;-148.56;100.00;61375.16;5065010;28;20026;-32
2022/07/03 08:27:37;;;;;;;1.75;0.93;;;;;;;-148.56;100.00;61375.16;5063429;28;20020;-34
2022/07/03 08:30:03;;;;;;;4.30;1.30;;;;;;;-148.56;100.00;61375.16;5064218;28;20505;-37
2022/07/03 08:32:28;;;;;;;0.95;0.85;;;;;;;-148.56;100.00;61375.16;5063289;28;20113;-33
2022/07/03 08:34:53;;;;;;;3.13;1.00;;;;;;;-148.56;100.00;61375.16;5064894;28;20762;-33
2022/07/03 08:37:19;;;;;;;3.90;0.95;;;;;;;-148.56;33.81;61375.16;5062312;28;20032;-31
2022/07/03 08:39:44;;;;;;;3.50;1.00;;;;;;;-148.56;33.85;96912.19;5061154;28;20921;-32
2022/07/03 08:42:11;;;;;;;2.92;0.80;;;;;;;-148.56;100.00;61375.16;5063068;28;22560;-33
2022/07/03 08:44:36;;;;;;;3.80;1.00;;;;;;;-148.56;100.00;61375.16;5061358;28;22054;-33
2022/07/03 08:47:02;;;;;;;5.07;1.00;;;;;;;-148.56;100.00;61375.16;5040495;28;20020;-34
2022/07/03 08:49:28;;;;;;;2.67;0.98;;;;;;;-148.56;100.00;61375.16;5058884;28;20046;-31
2022/07/03 08:51:53;;;;;;;4.78;0.70;;;;;;;-148.56;100.00;61375.16;5070808;28;20452;-33
2022/07/03 08:54:19;;;;;;;1.98;0.88;;;;;;;-148.56;100.00;61375.16;5075685;28;20032;-30
2022/07/03 08:56:44;;;;;;;2.42;1.00;;;;;;;-148.56;100.00;61375.16;5073744;28;20036;-37
2022/07/03 08:59:09;;;;;;;2.42;0.80;;;;;;;-148.56;100.00;61375.16;5077373;28;20612;-30
2022/07/03 09:01:39;;;;;;;1.67;0.80;;;;;;;-148.56;100.00;61375.16;5071334;28;20042;-35
2022/07/03 09:04:04;;;;;;;3.35;1.50;;;;;;;-148.56;100.00;61375.16;5060569;28;20031;-31
2022/07/03 09:06:33;;;;;;;3.33;1.05;;;;;;;-148.56;100.00;61375.16;5045229;28;20032;-30
2022/07/03 09:09:01;;;;;;;5.25;1.42;;;;;;;-148.56;100.00;61375.16;5057239;28;20032;-31
2022/07/03 09:11:26;;;;;;;16.15;5.20;;;;;;;-148.56;100.00;61375.16;5061357;28;20660;-32
2022/07/03 09:13:52;;;;;;;5.18;1.50;;;;;;;-148.56;100.00;61375.16;5044277;28;20039;-33
2022/07/03 09:16:17;;;;;;;3.80;1.83;;;;;;;-148.56;100.00;61375.16;5058303;28;20032;-30
2022/07/03 09:18:43;;;;;;;5.88;2.30;;;;;;;-148.56;100.00;61375.16;5064484;28;20080;-31
2022/07/03 09:21:09;;;;;;;5.47;2.50;;;;;;;-148.56;100.00;61375.16;5063513;28;20024;-31
2022/07/03 09:23:52;;;;;;;9.60;2.83;;;;;;;-148.56;100.00;61375.16;5061747;28;21656;-30
2022/07/03 09:26:18;;;;;;;7.10;3.05;;;;;;;-148.56;100.00;61375.16;5063112;28;20577;-36
2022/07/03 09:28:50;;;;;;;19.98;3.10;;;;;;;-148.56;100.00;61375.16;5066455;28;20574;-30
2022/07/03 09:31:16;;;;;;;7.97;2.67;;;;;;;-148.56;100.00;61375.16;5064150;28;20040;-33
2022/07/03 09:34:01;;;;;;;9.93;3.05;;;;;;;-148.56;100.00;61375.16;5065744;28;20052;-33
2022/07/03 09:36:43;;;;;;;11.93;3.10;;;;;;;-148.56;100.00;61375.16;5071268;28;20065;-30
2022/07/03 09:39:20;;;;;;;11.27;2.60;;;;;;;-148.56;100.00;61375.16;5066380;28;20997;-34
2022/07/03 09:41:59;;;;;;;7.10;3.00;;;;;;;-148.56;100.00;61375.16;5058166;28;20043;-32
2022/07/03 09:44:28;;;;;;;10.15;3.05;;;;;;;-148.56;100.00;61375.16;5061356;28;20024;-32
2022/07/03 09:47:16;;;;;;;7.47;3.00;;;;;;;-148.56;100.00;61375.16;5057508;28;20056;-35
2022/07/03 09:49:55;;;;;;;9.10;3.00;;;;;;;-148.56;100.00;61375.16;5064516;28;20981;-33
2022/07/03 09:52:33;;;;;;;8.07;2.90;;;;;;;-148.56;100.00;61375.16;5045612;28;20027;-35
2022/07/03 09:54:59;;;;;;;8.55;3.05;;;;;;;-148.56;100.00;61375.16;5043126;28;22467;-30
2022/07/03 09:57:29;;;;;;;10.02;3.15;;;;;;;-148.56;100.00;61375.16;5047612;28;20250;-33
2022/07/03 10:00:11;;;;;;;10.15;3.33;;;;;;;-148.56;100.00;61375.16;5050633;28;20727;-34
2022/07/03 10:02:48;;;;;;;12.93;3.33;;;;;;;-148.56;100.00;61375.16;5047605;28;20028;-31
2022/07/03 10:05:14;;;;;;;11.05;3.38;;;;;;;-148.56;100.00;61375.16;5048384;28;20664;-35
2022/07/03 10:07:55;;;;;;;8.63;3.08;;;;;;;-148.56;100.00;61375.16;5049560;28;20043;-33
2022/07/03 10:10:21;;;;;;;7.40;3.38;;;;;;;-148.56;100.00;61375.16;5046091;28;20598;-36
2022/07/03 10:12:51;;;;;;;9.63;3.22;;;;;;;-148.56;100.00;61375.16;5052403;28;20509;-33
2022/07/03 10:15:17;;;;;;;10.73;3.42;;;;;;;-148.56;100.00;61375.16;5054266;28;20949;-31
2022/07/03 10:17:43;;;;;;;6.50;3.00;;;;;;;-148.56;100.00;61375.16;5044821;28;20122;-34
2022/07/03 10:20:11;;;;;;;7.85;2.90;;;;;;;-148.56;100.00;61375.16;5042536;28;20408;-33
2022/07/03 10:22:37;;;;;;;7.90;3.22;;;;;;;-148.56;100.00;61375.16;5032426;28;20036;-38
2022/07/03 10:25:02;;;;;;;8.00;3.03;;;;;;;-148.56;100.00;61375.16;5053445;28;20054;-36
2022/07/03 10:27:28;;;;;;;6.85;2.92;;;;;;;-148.56;100.00;61375.16;5040904;28;21754;-35
2022/07/03 10:29:53;;;;;;;5.03;2.53;;;;;;;-148.56;100.00;61375.16;5030781;28;20038;-33
2022/07/03 10:32:19;;;;;;;6.80;2.78;;;;;;;-148.56;100.00;61375.16;5048421;28;20028;-30
2022/07/03 10:34:45;;;;;;;7.78;3.20;;;;;;;-148.56;100.00;61375.16;5033968;28;20039;-35
2022/07/03 10:37:10;;;;;;;8.32;2.95;;;;;;;-148.56;100.00;61375.16;5045150;28;20035;-32
2022/07/03 10:44:45;;;;;;;5.85;2.78;;;;;;;-148.56;100.00;61375.16;5028120;28;21809;-35
2022/07/03 10:45:27;;;;;;;6.47;2.67;;;;;;;-148.56;100.00;61375.16;5029987;28;20294;-33
2022/07/03 10:47:52;;;;;;;6.20;2.83;;;;;;;-148.56;100.00;61375.16;5043702;28;20720;-34
2022/07/03 10:50:22;;;;;;;5.95;2.63;;;;;;;-148.56;100.00;61375.16;5046753;28;21292;-33
2022/07/03 10:52:47;;;;;;;8.43;2.90;;;;;;;-148.56;100.00;61375.16;5044179;28;20662;-31
2022/07/03 10:55:14;;;;;;;5.22;2.42;;;;;;;-148.56;100.00;61375.16;5056962;28;20589;-33
2022/07/03 10:57:40;;;;;;;6.40;2.35;;;;;;;-148.56;100.00;61375.16;5056665;28;20084;-38
2022/07/03 11:00:07;;;;;;;4.60;2.70;;;;;;;-148.56;100.00;61375.16;5056230;28;20038;-32
2022/07/03 11:02:43;;;;;;;5.60;2.60;;;;;;;-148.56;100.00;61375.16;5051891;28;20027;-34
2022/07/03 11:05:12;;;;;;;7.40;2.75;;;;;;;-148.56;100.00;61375.16;5055018;28;20240;-36
2022/07/03 11:07:49;;;;;;;4.40;2.38;;;;;;;-148.56;100.00;61375.16;5054805;28;20979;-37
2022/07/03 11:10:15;;;;;;;5.50;2.33;;;;;;;-148.56;100.00;61375.16;5053813;28;20039;-39
2022/07/03 11:12:52;;;;;;;4.90;2.40;;;;;;;-148.56;100.00;61375.16;5055773;28;21486;-36
2022/07/03 11:15:24;;;;;;;5.22;2.40;;;;;;;-148.56;100.00;61375.16;5054972;28;20042;-34
2022/07/03 11:18:05;;;;;;;4.47;2.50;;;;;;;-148.56;100.00;61375.16;5053926;28;20096;-35
2022/07/03 11:20:31;;;;;;;6.97;2.15;;;;;;;-148.56;100.00;61375.16;5052835;28;20137;-35
2022/07/03 11:23:05;;;;;;;4.85;2.30;;;;;;;-148.56;100.00;61375.16;5052092;28;20081;-31
2022/07/03 11:25:44;;;;;;;4.20;2.30;;;;;;;-148.56;100.00;61375.16;5046070;28;20032;-33
2022/07/03 11:28:31;;;;;;;5.22;2.45;;;;;;;-148.56;100.00;61375.16;5059388;28;20138;-32
2022/07/03 11:31:18;;;;;;;5.53;2.30;;;;;;;-148.56;100.00;61375.16;5061250;28;20055;-33
2022/07/03 11:33:44;;;;;;;4.03;2.15;;;;;;;-148.56;100.00;61375.16;5062706;28;20028;-30
2022/07/03 11:36:33;;;;;;;5.53;2.45;;;;;;;-148.56;100.00;61375.16;5063172;28;20028;-32